sensor_id;sensor_type;location;lat;lon;timestamp;P1;durP1;ratioP1;P2;durP2;ratioP2
769;SDS011;368;48.698;9.116;2023-12-07T00:01:22;11.57;;;8.87;;
769;SDS011;368;48.698;9.116;2023-12-07T00:03:49;11.43;;;9.53;;
769;SDS011;368;48.698;9.116;2023-12-07T00:06:16;11.80;;;8.90;;
769;SDS011;368;48.698;9.116;2023-12-07T00:08:43;11.50;;;8.20;;
769;SDS011;368;48.698;9.116;2023-12-07T00:11:11;14.90;;;8.50;;
769;SDS011;368;48.698;9.116;2023-12-07T00:13:38;10.07;;;8.60;;
769;SDS011;368;48.698;9.116;2023-12-07T00:16:04;12.20;;;8.77;;
769;SDS011;368;48.698;9.116;2023-12-07T00:18:32;10.57;;;8.83;;
769;SDS011;368;48.698;9.116;2023-12-07T00:20:59;10.83;;;7.77;;
769;SDS011;368;48.698;9.116;2023-12-07T00:23:25;12.10;;;7.97;;
769;SDS011;368;48.698;9.116;2023-12-07T00:25:52;10.03;;;8.83;;
769;SDS011;368;48.698;9.116;2023-12-07T00:28:20;11.37;;;8.37;;
769;SDS011;368;48.698;9.116;2023-12-07T00:30:47;10.00;;;8.90;;
769;SDS011;368;48.698;9.116;2023-12-07T00:33:14;9.90;;;8.90;;
769;SDS011;368;48.698;9.116;2023-12-07T00:35:42;12.30;;;8.40;;
769;SDS011;368;48.698;9.116;2023-12-07T00:38:08;12.10;;;9.80;;
769;SDS011;368;48.698;9.116;2023-12-07T00:40:35;12.50;;;8.37;;
769;SDS011;368;48.698;9.116;2023-12-07T00:43:03;10.83;;;8.50;;
769;SDS011;368;48.698;9.116;2023-12-07T00:45:32;12.30;;;8.43;;
769;SDS011;368;48.698;9.116;2023-12-07T00:47:59;10.60;;;8.80;;
769;SDS011;368;48.698;9.116;2023-12-07T00:50:25;10.50;;;8.40;;
769;SDS011;368;48.698;9.116;2023-12-07T00:52:52;14.63;;;11.00;;
769;SDS011;368;48.698;9.116;2023-12-07T00:55:19;9.60;;;8.50;;
769;SDS011;368;48.698;9.116;2023-12-07T00:57:46;9.43;;;8.47;;
769;SDS011;368;48.698;9.116;2023-12-07T01:00:13;8.27;;;7.43;;
769;SDS011;368;48.698;9.116;2023-12-07T01:02:42;11.33;;;7.87;;
769;SDS011;368;48.698;9.116;2023-12-07T01:05:08;8.90;;;7.47;;
769;SDS011;368;48.698;9.116;2023-12-07T01:07:35;8.73;;;7.70;;
769;SDS011;368;48.698;9.116;2023-12-07T01:10:02;8.83;;;7.93;;
769;SDS011;368;48.698;9.116;2023-12-07T01:12:30;9.93;;;8.93;;
769;SDS011;368;48.698;9.116;2023-12-07T01:14:57;14.13;;;9.30;;
769;SDS011;368;48.698;9.116;2023-12-07T01:17:24;8.77;;;7.87;;
769;SDS011;368;48.698;9.116;2023-12-07T01:19:52;10.70;;;8.30;;
769;SDS011;368;48.698;9.116;2023-12-07T01:22:19;9.17;;;7.73;;
769;SDS011;368;48.698;9.116;2023-12-07T01:24:46;13.73;;;7.60;;
769;SDS011;368;48.698;9.116;2023-12-07T01:27:13;8.37;;;6.93;;
769;SDS011;368;48.698;9.116;2023-12-07T01:29:40;10.33;;;7.93;;
769;SDS011;368;48.698;9.116;2023-12-07T01:32:06;9.83;;;8.50;;
769;SDS011;368;48.698;9.116;2023-12-07T01:34:33;10.17;;;8.27;;
769;SDS011;368;48.698;9.116;2023-12-07T01:37:02;10.40;;;7.80;;
769;SDS011;368;48.698;9.116;2023-12-07T01:39:29;9.57;;;8.37;;
769;SDS011;368;48.698;9.116;2023-12-07T01:41:55;9.90;;;7.63;;
769;SDS011;368;48.698;9.116;2023-12-07T01:44:22;8.87;;;7.73;;
769;SDS011;368;48.698;9.116;2023-12-07T01:46:50;8.90;;;7.43;;
769;SDS011;368;48.698;9.116;2023-12-07T01:49:17;14.03;;;7.93;;
769;SDS011;368;48.698;9.116;2023-12-07T01:51:44;9.53;;;6.37;;
769;SDS011;368;48.698;9.116;2023-12-07T01:54:13;8.50;;;7.70;;
769;SDS011;368;48.698;9.116;2023-12-07T01:56:40;8.50;;;7.17;;
769;SDS011;368;48.698;9.116;2023-12-07T01:59:07;7.80;;;6.97;;
769;SDS011;368;48.698;9.116;2023-12-07T02:01:33;7.43;;;6.57;;
769;SDS011;368;48.698;9.116;2023-12-07T02:04:00;9.97;;;7.20;;
769;SDS011;368;48.698;9.116;2023-12-07T02:06:27;8.23;;;6.87;;
769;SDS011;368;48.698;9.116;2023-12-07T02:08:54;9.57;;;7.50;;
769;SDS011;368;48.698;9.116;2023-12-07T02:11:22;11.13;;;8.07;;
769;SDS011;368;48.698;9.116;2023-12-07T02:13:49;7.73;;;6.90;;
769;SDS011;368;48.698;9.116;2023-12-07T02:16:21;10.50;;;8.10;;
769;SDS011;368;48.698;9.116;2023-12-07T02:18:55;7.87;;;6.80;;
769;SDS011;368;48.698;9.116;2023-12-07T02:21:30;9.60;;;7.47;;
769;SDS011;368;48.698;9.116;2023-12-07T02:24:04;7.90;;;7.10;;
769;SDS011;368;48.698;9.116;2023-12-07T02:26:34;7.67;;;6.70;;
769;SDS011;368;48.698;9.116;2023-12-07T02:29:02;9.37;;;7.03;;
769;SDS011;368;48.698;9.116;2023-12-07T02:31:29;8.73;;;7.80;;
769;SDS011;368;48.698;9.116;2023-12-07T02:33:56;9.97;;;7.90;;
769;SDS011;368;48.698;9.116;2023-12-07T02:36:24;11.93;;;7.67;;
769;SDS011;368;48.698;9.116;2023-12-07T02:38:53;8.10;;;7.30;;
769;SDS011;368;48.698;9.116;2023-12-07T02:41:26;10.73;;;7.37;;
769;SDS011;368;48.698;9.116;2023-12-07T02:43:55;9.23;;;7.17;;
769;SDS011;368;48.698;9.116;2023-12-07T02:46:23;9.43;;;7.83;;
769;SDS011;368;48.698;9.116;2023-12-07T02:48:50;10.23;;;8.17;;
769;SDS011;368;48.698;9.116;2023-12-07T02:51:17;9.90;;;7.83;;
769;SDS011;368;48.698;9.116;2023-12-07T02:53:44;7.30;;;6.60;;
769;SDS011;368;48.698;9.116;2023-12-07T02:56:11;8.73;;;7.83;;
769;SDS011;368;48.698;9.116;2023-12-07T02:58:37;8.80;;;7.90;;
769;SDS011;368;48.698;9.116;2023-12-07T03:01:06;9.33;;;7.47;;
769;SDS011;368;48.698;9.116;2023-12-07T03:03:33;11.33;;;8.17;;
769;SDS011;368;48.698;9.116;2023-12-07T03:06:00;10.57;;;8.00;;
769;SDS011;368;48.698;9.116;2023-12-07T03:08:26;9.10;;;8.13;;
769;SDS011;368;48.698;9.116;2023-12-07T03:10:53;10.60;;;7.50;;
769;SDS011;368;48.698;9.116;2023-12-07T03:13:20;9.30;;;7.57;;
769;SDS011;368;48.698;9.116;2023-12-07T03:15:47;10.03;;;8.23;;
769;SDS011;368;48.698;9.116;2023-12-07T03:18:15;8.37;;;7.53;;
769;SDS011;368;48.698;9.116;2023-12-07T03:20:42;10.17;;;7.10;;
769;SDS011;368;48.698;9.116;2023-12-07T03:23:09;8.73;;;7.83;;
769;SDS011;368;48.698;9.116;2023-12-07T03:25:35;9.70;;;7.20;;
769;SDS011;368;48.698;9.116;2023-12-07T03:28:02;9.10;;;7.13;;
769;SDS011;368;48.698;9.116;2023-12-07T03:30:29;10.90;;;8.10;;
769;SDS011;368;48.698;9.116;2023-12-07T03:32:56;10.30;;;6.43;;
769;SDS011;368;48.698;9.116;2023-12-07T03:35:24;9.93;;;8.30;;
769;SDS011;368;48.698;9.116;2023-12-07T03:37:51;12.30;;;7.80;;
769;SDS011;368;48.698;9.116;2023-12-07T03:40:18;10.37;;;7.17;;
769;SDS011;368;48.698;9.116;2023-12-07T03:42:44;8.10;;;7.30;;
769;SDS011;368;48.698;9.116;2023-12-07T03:45:11;12.93;;;8.50;;
769;SDS011;368;48.698;9.116;2023-12-07T03:47:37;8.53;;;7.60;;
769;SDS011;368;48.698;9.116;2023-12-07T03:50:04;8.93;;;7.10;;
769;SDS011;368;48.698;9.116;2023-12-07T03:52:33;9.40;;;7.23;;
769;SDS011;368;48.698;9.116;2023-12-07T03:55:00;8.60;;;6.95;;
769;SDS011;368;48.698;9.116;2023-12-07T03:57:27;8.70;;;7.50;;
769;SDS011;368;48.698;9.116;2023-12-07T03:59:54;10.27;;;7.40;;
769;SDS011;368;48.698;9.116;2023-12-07T04:02:21;11.30;;;7.67;;
769;SDS011;368;48.698;9.116;2023-12-07T04:04:48;7.77;;;7.00;;
769;SDS011;368;48.698;9.116;2023-12-07T04:07:15;11.15;;;8.10;;
769;SDS011;368;48.698;9.116;2023-12-07T04:09:43;8.67;;;7.17;;
769;SDS011;368;48.698;9.116;2023-12-07T04:12:10;11.57;;;6.93;;
769;SDS011;368;48.698;9.116;2023-12-07T04:14:36;9.93;;;8.73;;
769;SDS011;368;48.698;9.116;2023-12-07T04:17:03;10.57;;;8.03;;
769;SDS011;368;48.698;9.116;2023-12-07T04:19:30;10.35;;;8.00;;
769;SDS011;368;48.698;9.116;2023-12-07T04:21:57;8.10;;;6.97;;
769;SDS011;368;48.698;9.116;2023-12-07T04:24:23;11.10;;;8.70;;
769;SDS011;368;48.698;9.116;2023-12-07T04:26:52;12.63;;;8.35;;
769;SDS011;368;48.698;9.116;2023-12-07T04:29:18;13.93;;;9.68;;
769;SDS011;368;48.698;9.116;2023-12-07T04:31:45;13.93;;;8.50;;
769;SDS011;368;48.698;9.116;2023-12-07T04:34:12;10.65;;;8.32;;
769;SDS011;368;48.698;9.116;2023-12-07T04:36:39;11.77;;;8.60;;
769;SDS011;368;48.698;9.116;2023-12-07T04:39:05;11.90;;;9.23;;
769;SDS011;368;48.698;9.116;2023-12-07T04:41:33;8.05;;;7.05;;
769;SDS011;368;48.698;9.116;2023-12-07T04:44:01;14.15;;;9.43;;
769;SDS011;368;48.698;9.116;2023-12-07T04:46:28;9.65;;;7.78;;
769;SDS011;368;48.698;9.116;2023-12-07T04:48:55;9.97;;;8.07;;
769;SDS011;368;48.698;9.116;2023-12-07T04:51:21;9.80;;;8.27;;
769;SDS011;368;48.698;9.116;2023-12-07T04:53:48;9.57;;;8.50;;
769;SDS011;368;48.698;9.116;2023-12-07T04:56:15;13.40;;;9.38;;
769;SDS011;368;48.698;9.116;2023-12-07T04:58:42;12.18;;;8.75;;
769;SDS011;368;48.698;9.116;2023-12-07T05:01:10;10.20;;;8.45;;
769;SDS011;368;48.698;9.116;2023-12-07T05:03:37;10.55;;;8.27;;
769;SDS011;368;48.698;9.116;2023-12-07T05:06:04;10.15;;;7.60;;
769;SDS011;368;48.698;9.116;2023-12-07T05:08:32;12.55;;;8.77;;
769;SDS011;368;48.698;9.116;2023-12-07T05:10:59;10.45;;;8.18;;
769;SDS011;368;48.698;9.116;2023-12-07T05:13:26;8.40;;;7.60;;
769;SDS011;368;48.698;9.116;2023-12-07T05:15:52;12.40;;;7.38;;
769;SDS011;368;48.698;9.116;2023-12-07T05:18:21;11.05;;;9.10;;
769;SDS011;368;48.698;9.116;2023-12-07T05:20:47;11.18;;;8.75;;
769;SDS011;368;48.698;9.116;2023-12-07T05:23:14;11.40;;;7.72;;
769;SDS011;368;48.698;9.116;2023-12-07T05:25:41;14.27;;;9.10;;
769;SDS011;368;48.698;9.116;2023-12-07T05:28:08;14.70;;;8.27;;
769;SDS011;368;48.698;9.116;2023-12-07T05:30:35;10.52;;;7.95;;
769;SDS011;368;48.698;9.116;2023-12-07T05:33:02;8.63;;;7.25;;
769;SDS011;368;48.698;9.116;2023-12-07T05:35:31;10.13;;;8.38;;
769;SDS011;368;48.698;9.116;2023-12-07T05:37:57;9.68;;;7.57;;
769;SDS011;368;48.698;9.116;2023-12-07T05:40:24;9.88;;;7.75;;
769;SDS011;368;48.698;9.116;2023-12-07T05:42:52;10.35;;;7.65;;
769;SDS011;368;48.698;9.116;2023-12-07T05:45:19;10.95;;;7.40;;
769;SDS011;368;48.698;9.116;2023-12-07T05:47:45;11.73;;;7.90;;
769;SDS011;368;48.698;9.116;2023-12-07T05:50:12;9.60;;;7.95;;
769;SDS011;368;48.698;9.116;2023-12-07T05:52:40;9.80;;;8.32;;
769;SDS011;368;48.698;9.116;2023-12-07T05:55:07;10.77;;;9.10;;
769;SDS011;368;48.698;9.116;2023-12-07T05:57:34;11.30;;;8.45;;
769;SDS011;368;48.698;9.116;2023-12-07T06:00:01;11.02;;;8.68;;
769;SDS011;368;48.698;9.116;2023-12-07T06:02:30;10.93;;;8.27;;
769;SDS011;368;48.698;9.116;2023-12-07T06:04:57;12.70;;;8.45;;
769;SDS011;368;48.698;9.116;2023-12-07T06:07:24;10.95;;;7.95;;
769;SDS011;368;48.698;9.116;2023-12-07T06:09:52;12.30;;;10.35;;
769;SDS011;368;48.698;9.116;2023-12-07T06:12:19;13.40;;;11.45;;
769;SDS011;368;48.698;9.116;2023-12-07T06:14:46;11.45;;;10.23;;
769;SDS011;368;48.698;9.116;2023-12-07T06:17:13;13.02;;;11.68;;
769;SDS011;368;48.698;9.116;2023-12-07T06:19:40;11.82;;;10.60;;
769;SDS011;368;48.698;9.116;2023-12-07T06:22:07;14.90;;;12.25;;
769;SDS011;368;48.698;9.116;2023-12-07T06:24:34;17.98;;;14.93;;
769;SDS011;368;48.698;9.116;2023-12-07T06:27:03;18.10;;;16.30;;
769;SDS011;368;48.698;9.116;2023-12-07T06:29:30;23.02;;;19.70;;
769;SDS011;368;48.698;9.116;2023-12-07T06:31:57;16.90;;;15.18;;
769;SDS011;368;48.698;9.116;2023-12-07T06:34:25;52.47;;;36.72;;
769;SDS011;368;48.698;9.116;2023-12-07T06:36:53;35.50;;;28.80;;
769;SDS011;368;48.698;9.116;2023-12-07T06:39:19;29.88;;;23.40;;
769;SDS011;368;48.698;9.116;2023-12-07T06:41:46;20.80;;;16.75;;
769;SDS011;368;48.698;9.116;2023-12-07T06:44:14;17.85;;;15.50;;
769;SDS011;368;48.698;9.116;2023-12-07T06:46:41;16.48;;;13.50;;
769;SDS011;368;48.698;9.116;2023-12-07T06:49:08;14.02;;;12.52;;
769;SDS011;368;48.698;9.116;2023-12-07T06:51:34;16.20;;;14.02;;
769;SDS011;368;48.698;9.116;2023-12-07T06:54:01;15.57;;;11.68;;
769;SDS011;368;48.698;9.116;2023-12-07T06:56:28;14.35;;;12.55;;
769;SDS011;368;48.698;9.116;2023-12-07T06:58:55;13.73;;;12.30;;
769;SDS011;368;48.698;9.116;2023-12-07T07:01:23;16.42;;;12.27;;
769;SDS011;368;48.698;9.116;2023-12-07T07:03:50;12.73;;;11.43;;
769;SDS011;368;48.698;9.116;2023-12-07T07:06:17;14.65;;;12.32;;
769;SDS011;368;48.698;9.116;2023-12-07T07:08:44;13.90;;;12.27;;
769;SDS011;368;48.698;9.116;2023-12-07T07:11:12;12.05;;;10.80;;
769;SDS011;368;48.698;9.116;2023-12-07T07:13:40;12.50;;;9.52;;
769;SDS011;368;48.698;9.116;2023-12-07T07:16:07;14.02;;;9.75;;
769;SDS011;368;48.698;9.116;2023-12-07T07:18:36;13.20;;;10.23;;
769;SDS011;368;48.698;9.116;2023-12-07T07:21:04;11.15;;;10.05;;
769;SDS011;368;48.698;9.116;2023-12-07T07:23:30;12.43;;;10.70;;
769;SDS011;368;48.698;9.116;2023-12-07T07:25:57;14.38;;;12.00;;
769;SDS011;368;48.698;9.116;2023-12-07T07:28:24;14.10;;;10.90;;
769;SDS011;368;48.698;9.116;2023-12-07T07:30:51;16.45;;;10.82;;
769;SDS011;368;48.698;9.116;2023-12-07T07:33:18;12.18;;;9.80;;
769;SDS011;368;48.698;9.116;2023-12-07T07:35:46;12.00;;;8.82;;
769;SDS011;368;48.698;9.116;2023-12-07T07:38:13;11.50;;;9.55;;
769;SDS011;368;48.698;9.116;2023-12-07T07:40:40;10.80;;;9.30;;
769;SDS011;368;48.698;9.116;2023-12-07T07:43:07;10.52;;;7.65;;
769;SDS011;368;48.698;9.116;2023-12-07T07:45:34;13.18;;;9.30;;
769;SDS011;368;48.698;9.116;2023-12-07T07:48:01;10.27;;;8.60;;
769;SDS011;368;48.698;9.116;2023-12-07T07:50:28;12.88;;;9.35;;
769;SDS011;368;48.698;9.116;2023-12-07T07:52:56;10.95;;;8.32;;
769;SDS011;368;48.698;9.116;2023-12-07T07:55:22;11.00;;;8.10;;
769;SDS011;368;48.698;9.116;2023-12-07T07:57:49;12.93;;;8.25;;
769;SDS011;368;48.698;9.116;2023-12-07T08:00:16;12.77;;;9.27;;
769;SDS011;368;48.698;9.116;2023-12-07T08:02:44;10.02;;;7.80;;
769;SDS011;368;48.698;9.116;2023-12-07T08:05:11;12.57;;;9.65;;
769;SDS011;368;48.698;9.116;2023-12-07T08:07:38;17.85;;;11.65;;
769;SDS011;368;48.698;9.116;2023-12-07T08:10:07;19.00;;;13.30;;
769;SDS011;368;48.698;9.116;2023-12-07T08:12:34;15.38;;;11.20;;
769;SDS011;368;48.698;9.116;2023-12-07T08:15:01;16.35;;;11.45;;
769;SDS011;368;48.698;9.116;2023-12-07T08:17:29;14.68;;;11.73;;
769;SDS011;368;48.698;9.116;2023-12-07T08:19:56;12.10;;;10.10;;
769;SDS011;368;48.698;9.116;2023-12-07T08:22:24;15.25;;;10.60;;
769;SDS011;368;48.698;9.116;2023-12-07T08:24:51;12.17;;;9.93;;
769;SDS011;368;48.698;9.116;2023-12-07T08:27:19;13.15;;;10.60;;
769;SDS011;368;48.698;9.116;2023-12-07T08:29:46;14.40;;;10.40;;
769;SDS011;368;48.698;9.116;2023-12-07T08:32:12;16.13;;;11.17;;
769;SDS011;368;48.698;9.116;2023-12-07T08:34:40;10.63;;;9.52;;
769;SDS011;368;48.698;9.116;2023-12-07T08:37:09;11.75;;;9.07;;
769;SDS011;368;48.698;9.116;2023-12-07T08:39:36;15.43;;;10.10;;
769;SDS011;368;48.698;9.116;2023-12-07T08:42:03;16.75;;;11.00;;
769;SDS011;368;48.698;9.116;2023-12-07T08:44:31;22.20;;;14.77;;
769;SDS011;368;48.698;9.116;2023-12-07T08:46:58;22.52;;;15.23;;
769;SDS011;368;48.698;9.116;2023-12-07T08:49:25;20.67;;;14.17;;
769;SDS011;368;48.698;9.116;2023-12-07T08:51:52;16.23;;;13.07;;
769;SDS011;368;48.698;9.116;2023-12-07T08:54:19;15.77;;;12.33;;
769;SDS011;368;48.698;9.116;2023-12-07T08:56:46;13.63;;;10.30;;
769;SDS011;368;48.698;9.116;2023-12-07T08:59:12;20.93;;;13.43;;
769;SDS011;368;48.698;9.116;2023-12-07T09:01:41;16.87;;;12.77;;
769;SDS011;368;48.698;9.116;2023-12-07T09:04:08;19.23;;;13.90;;
769;SDS011;368;48.698;9.116;2023-12-07T09:06:36;17.58;;;12.35;;
769;SDS011;368;48.698;9.116;2023-12-07T09:09:06;24.60;;;16.30;;
769;SDS011;368;48.698;9.116;2023-12-07T09:11:33;21.30;;;16.47;;
769;SDS011;368;48.698;9.116;2023-12-07T09:14:00;23.70;;;18.00;;
769;SDS011;368;48.698;9.116;2023-12-07T09:16:26;17.57;;;13.17;;
769;SDS011;368;48.698;9.116;2023-12-07T09:18:54;18.90;;;9.80;;
769;SDS011;368;48.698;9.116;2023-12-07T09:21:21;11.97;;;9.33;;
769;SDS011;368;48.698;9.116;2023-12-07T09:23:48;10.40;;;8.97;;
769;SDS011;368;48.698;9.116;2023-12-07T09:26:15;9.60;;;7.60;;
769;SDS011;368;48.698;9.116;2023-12-07T09:28:42;8.37;;;7.57;;
769;SDS011;368;48.698;9.116;2023-12-07T09:31:08;12.33;;;7.93;;
769;SDS011;368;48.698;9.116;2023-12-07T09:33:35;10.80;;;7.60;;
769;SDS011;368;48.698;9.116;2023-12-07T09:36:04;9.80;;;7.97;;
769;SDS011;368;48.698;9.116;2023-12-07T09:38:34;11.73;;;7.53;;
769;SDS011;368;48.698;9.116;2023-12-07T09:41:02;10.40;;;9.27;;
769;SDS011;368;48.698;9.116;2023-12-07T09:43:29;10.97;;;8.20;;
769;SDS011;368;48.698;9.116;2023-12-07T09:45:56;6.80;;;6.00;;
769;SDS011;368;48.698;9.116;2023-12-07T09:48:24;7.80;;;6.10;;
769;SDS011;368;48.698;9.116;2023-12-07T09:50:51;8.33;;;6.80;;
769;SDS011;368;48.698;9.116;2023-12-07T09:53:22;7.10;;;6.17;;
769;SDS011;368;48.698;9.116;2023-12-07T09:55:49;8.40;;;6.60;;
769;SDS011;368;48.698;9.116;2023-12-07T09:58:16;9.43;;;7.33;;
769;SDS011;368;48.698;9.116;2023-12-07T10:00:43;8.70;;;6.60;;
769;SDS011;368;48.698;9.116;2023-12-07T10:03:10;7.80;;;6.50;;
769;SDS011;368;48.698;9.116;2023-12-07T10:05:53;8.63;;;6.80;;
769;SDS011;368;48.698;9.116;2023-12-07T10:08:26;10.17;;;6.40;;
769;SDS011;368;48.698;9.116;2023-12-07T10:11:04;8.20;;;7.00;;
769;SDS011;368;48.698;9.116;2023-12-07T10:13:32;7.50;;;6.27;;
769;SDS011;368;48.698;9.116;2023-12-07T10:16:06;7.73;;;6.20;;
769;SDS011;368;48.698;9.116;2023-12-07T10:18:34;6.93;;;5.90;;
769;SDS011;368;48.698;9.116;2023-12-07T10:21:01;9.70;;;5.83;;
769;SDS011;368;48.698;9.116;2023-12-07T10:23:30;6.37;;;5.30;;
769;SDS011;368;48.698;9.116;2023-12-07T10:25:58;8.03;;;5.80;;
769;SDS011;368;48.698;9.116;2023-12-07T10:28:25;7.67;;;6.20;;
769;SDS011;368;48.698;9.116;2023-12-07T10:30:52;6.33;;;5.70;;
769;SDS011;368;48.698;9.116;2023-12-07T10:33:19;7.00;;;5.60;;
769;SDS011;368;48.698;9.116;2023-12-07T10:35:46;6.27;;;5.67;;
769;SDS011;368;48.698;9.116;2023-12-07T10:38:13;6.67;;;5.37;;
769;SDS011;368;48.698;9.116;2023-12-07T10:40:41;6.17;;;5.07;;
769;SDS011;368;48.698;9.116;2023-12-07T10:43:08;7.67;;;5.07;;
769;SDS011;368;48.698;9.116;2023-12-07T10:45:35;5.67;;;5.10;;
769;SDS011;368;48.698;9.116;2023-12-07T10:48:03;5.47;;;4.97;;
769;SDS011;368;48.698;9.116;2023-12-07T10:50:32;6.27;;;4.50;;
769;SDS011;368;48.698;9.116;2023-12-07T10:53:04;6.67;;;5.00;;
769;SDS011;368;48.698;9.116;2023-12-07T10:55:37;4.93;;;4.43;;
769;SDS011;368;48.698;9.116;2023-12-07T10:58:12;4.67;;;4.27;;
769;SDS011;368;48.698;9.116;2023-12-07T11:00:41;5.60;;;4.40;;
769;SDS011;368;48.698;9.116;2023-12-07T11:03:11;4.50;;;4.10;;
769;SDS011;368;48.698;9.116;2023-12-07T11:05:42;5.70;;;4.03;;
769;SDS011;368;48.698;9.116;2023-12-07T11:08:11;5.07;;;4.33;;
769;SDS011;368;48.698;9.116;2023-12-07T11:10:50;5.20;;;4.00;;
769;SDS011;368;48.698;9.116;2023-12-07T11:13:25;4.87;;;4.10;;
769;SDS011;368;48.698;9.116;2023-12-07T11:15:55;4.90;;;4.40;;
769;SDS011;368;48.698;9.116;2023-12-07T11:18:22;6.30;;;4.13;;
769;SDS011;368;48.698;9.116;2023-12-07T11:20:51;6.40;;;4.80;;
769;SDS011;368;48.698;9.116;2023-12-07T11:23:20;4.90;;;4.13;;
769;SDS011;368;48.698;9.116;2023-12-07T11:25:49;5.43;;;4.23;;
769;SDS011;368;48.698;9.116;2023-12-07T11:28:18;6.67;;;4.43;;
769;SDS011;368;48.698;9.116;2023-12-07T11:31:01;7.30;;;4.47;;
769;SDS011;368;48.698;9.116;2023-12-07T11:33:28;4.17;;;3.60;;
769;SDS011;368;48.698;9.116;2023-12-07T11:36:02;3.50;;;3.17;;
769;SDS011;368;48.698;9.116;2023-12-07T11:38:30;4.80;;;3.33;;
769;SDS011;368;48.698;9.116;2023-12-07T11:40:59;3.30;;;3.00;;
769;SDS011;368;48.698;9.116;2023-12-07T11:43:41;3.03;;;2.83;;
769;SDS011;368;48.698;9.116;2023-12-07T11:46:11;3.37;;;2.77;;
769;SDS011;368;48.698;9.116;2023-12-07T11:48:39;3.60;;;3.00;;
769;SDS011;368;48.698;9.116;2023-12-07T11:51:06;4.50;;;2.90;;
769;SDS011;368;48.698;9.116;2023-12-07T11:53:34;3.30;;;2.60;;
769;SDS011;368;48.698;9.116;2023-12-07T11:56:03;6.13;;;4.03;;
769;SDS011;368;48.698;9.116;2023-12-07T11:58:32;3.27;;;2.97;;
769;SDS011;368;48.698;9.116;2023-12-07T12:01:01;3.60;;;2.90;;
769;SDS011;368;48.698;9.116;2023-12-07T12:03:31;3.07;;;2.60;;
769;SDS011;368;48.698;9.116;2023-12-07T12:05:59;2.83;;;2.47;;
769;SDS011;368;48.698;9.116;2023-12-07T12:08:25;4.80;;;3.50;;
769;SDS011;368;48.698;9.116;2023-12-07T12:10:54;3.70;;;3.40;;
769;SDS011;368;48.698;9.116;2023-12-07T12:13:26;4.27;;;3.30;;
769;SDS011;368;48.698;9.116;2023-12-07T12:15:54;5.07;;;4.37;;
769;SDS011;368;48.698;9.116;2023-12-07T12:18:22;5.47;;;4.10;;
769;SDS011;368;48.698;9.116;2023-12-07T12:20:50;4.80;;;4.33;;
769;SDS011;368;48.698;9.116;2023-12-07T12:23:17;7.00;;;5.63;;
769;SDS011;368;48.698;9.116;2023-12-07T12:25:44;4.60;;;4.20;;
769;SDS011;368;48.698;9.116;2023-12-07T12:28:13;4.07;;;3.63;;
769;SDS011;368;48.698;9.116;2023-12-07T12:30:44;4.87;;;4.03;;
769;SDS011;368;48.698;9.116;2023-12-07T12:33:11;3.33;;;3.07;;
769;SDS011;368;48.698;9.116;2023-12-07T12:35:39;3.97;;;3.57;;
769;SDS011;368;48.698;9.116;2023-12-07T12:38:08;4.70;;;4.20;;
769;SDS011;368;48.698;9.116;2023-12-07T12:40:36;4.20;;;3.40;;
769;SDS011;368;48.698;9.116;2023-12-07T12:43:03;4.20;;;3.80;;
769;SDS011;368;48.698;9.116;2023-12-07T12:45:31;5.07;;;4.60;;
769;SDS011;368;48.698;9.116;2023-12-07T12:48:00;5.10;;;4.63;;
769;SDS011;368;48.698;9.116;2023-12-07T12:50:34;6.20;;;4.10;;
769;SDS011;368;48.698;9.116;2023-12-07T12:53:03;4.63;;;4.10;;
769;SDS011;368;48.698;9.116;2023-12-07T12:55:31;6.40;;;4.43;;
769;SDS011;368;48.698;9.116;2023-12-07T12:57:59;4.00;;;3.67;;
769;SDS011;368;48.698;9.116;2023-12-07T13:00:26;4.53;;;4.13;;
769;SDS011;368;48.698;9.116;2023-12-07T13:02:53;4.60;;;4.10;;
769;SDS011;368;48.698;9.116;2023-12-07T13:05:22;4.60;;;4.20;;
769;SDS011;368;48.698;9.116;2023-12-07T13:07:49;4.13;;;3.73;;
769;SDS011;368;48.698;9.116;2023-12-07T13:10:16;4.17;;;3.80;;
769;SDS011;368;48.698;9.116;2023-12-07T13:12:43;5.63;;;4.20;;
769;SDS011;368;48.698;9.116;2023-12-07T13:15:11;4.33;;;3.93;;
769;SDS011;368;48.698;9.116;2023-12-07T13:17:38;4.97;;;3.83;;
769;SDS011;368;48.698;9.116;2023-12-07T13:20:06;4.53;;;4.13;;
769;SDS011;368;48.698;9.116;2023-12-07T13:22:36;4.23;;;3.83;;
769;SDS011;368;48.698;9.116;2023-12-07T13:25:04;6.10;;;3.70;;
769;SDS011;368;48.698;9.116;2023-12-07T13:27:32;5.13;;;4.13;;
769;SDS011;368;48.698;9.116;2023-12-07T13:29:58;4.40;;;4.00;;
769;SDS011;368;48.698;9.116;2023-12-07T13:32:25;5.20;;;4.30;;
769;SDS011;368;48.698;9.116;2023-12-07T13:34:52;4.80;;;4.10;;
769;SDS011;368;48.698;9.116;2023-12-07T13:37:19;5.17;;;4.30;;
769;SDS011;368;48.698;9.116;2023-12-07T13:39:47;5.60;;;4.90;;
769;SDS011;368;48.698;9.116;2023-12-07T13:42:18;5.20;;;4.70;;
769;SDS011;368;48.698;9.116;2023-12-07T13:44:45;4.60;;;3.70;;
769;SDS011;368;48.698;9.116;2023-12-07T13:47:12;6.40;;;4.10;;
769;SDS011;368;48.698;9.116;2023-12-07T13:49:39;5.10;;;3.80;;
769;SDS011;368;48.698;9.116;2023-12-07T13:52:06;4.80;;;3.80;;
769;SDS011;368;48.698;9.116;2023-12-07T13:54:33;4.13;;;3.70;;
769;SDS011;368;48.698;9.116;2023-12-07T13:57:02;4.60;;;3.30;;
769;SDS011;368;48.698;9.116;2023-12-07T13:59:30;5.60;;;4.23;;
769;SDS011;368;48.698;9.116;2023-12-07T14:01:57;5.07;;;4.57;;
769;SDS011;368;48.698;9.116;2023-12-07T14:04:24;3.97;;;3.57;;
769;SDS011;368;48.698;9.116;2023-12-07T14:06:51;3.90;;;3.60;;
769;SDS011;368;48.698;9.116;2023-12-07T14:09:17;5.77;;;4.47;;
769;SDS011;368;48.698;9.116;2023-12-07T14:11:45;5.40;;;4.03;;
769;SDS011;368;48.698;9.116;2023-12-07T14:14:13;5.23;;;4.37;;
769;SDS011;368;48.698;9.116;2023-12-07T14:16:41;4.80;;;3.40;;
769;SDS011;368;48.698;9.116;2023-12-07T14:19:08;5.30;;;3.50;;
769;SDS011;368;48.698;9.116;2023-12-07T14:21:35;4.30;;;2.40;;
769;SDS011;368;48.698;9.116;2023-12-07T14:24:01;3.20;;;2.23;;
769;SDS011;368;48.698;9.116;2023-12-07T14:26:29;2.53;;;2.27;;
769;SDS011;368;48.698;9.116;2023-12-07T14:28:55;2.60;;;2.40;;
769;SDS011;368;48.698;9.116;2023-12-07T14:31:25;2.30;;;2.10;;
769;SDS011;368;48.698;9.116;2023-12-07T14:33:51;2.50;;;1.83;;
769;SDS011;368;48.698;9.116;2023-12-07T14:36:20;2.17;;;1.97;;
769;SDS011;368;48.698;9.116;2023-12-07T14:38:47;6.60;;;2.37;;
769;SDS011;368;48.698;9.116;2023-12-07T14:41:15;3.40;;;2.83;;
769;SDS011;368;48.698;9.116;2023-12-07T14:43:42;4.07;;;2.57;;
769;SDS011;368;48.698;9.116;2023-12-07T14:46:09;3.10;;;2.53;;
769;SDS011;368;48.698;9.116;2023-12-07T14:48:38;4.10;;;2.27;;
769;SDS011;368;48.698;9.116;2023-12-07T14:51:04;4.60;;;2.10;;
769;SDS011;368;48.698;9.116;2023-12-07T14:53:31;3.33;;;2.10;;
769;SDS011;368;48.698;9.116;2023-12-07T14:55:59;5.60;;;4.63;;
769;SDS011;368;48.698;9.116;2023-12-07T14:58:26;4.10;;;2.93;;
769;SDS011;368;48.698;9.116;2023-12-07T15:00:52;4.33;;;3.67;;
769;SDS011;368;48.698;9.116;2023-12-07T15:03:20;5.33;;;3.50;;
769;SDS011;368;48.698;9.116;2023-12-07T15:05:48;5.03;;;3.83;;
769;SDS011;368;48.698;9.116;2023-12-07T15:08:15;4.57;;;3.20;;
769;SDS011;368;48.698;9.116;2023-12-07T15:10:42;4.53;;;2.90;;
769;SDS011;368;48.698;9.116;2023-12-07T15:13:09;5.63;;;3.77;;
769;SDS011;368;48.698;9.116;2023-12-07T15:15:36;7.20;;;3.83;;
769;SDS011;368;48.698;9.116;2023-12-07T15:18:02;6.00;;;4.03;;
769;SDS011;368;48.698;9.116;2023-12-07T15:20:29;4.73;;;4.23;;
769;SDS011;368;48.698;9.116;2023-12-07T15:22:58;5.77;;;4.13;;
769;SDS011;368;48.698;9.116;2023-12-07T15:25:24;4.80;;;3.80;;
769;SDS011;368;48.698;9.116;2023-12-07T15:27:51;10.33;;;3.73;;
769;SDS011;368;48.698;9.116;2023-12-07T15:30:18;7.70;;;4.13;;
769;SDS011;368;48.698;9.116;2023-12-07T15:32:48;7.40;;;3.50;;
769;SDS011;368;48.698;9.116;2023-12-07T15:35:15;4.37;;;3.90;;
769;SDS011;368;48.698;9.116;2023-12-07T15:37:42;4.30;;;3.73;;
769;SDS011;368;48.698;9.116;2023-12-07T15:40:11;4.53;;;4.10;;